createdAt,value
2018-12-19T00:00:43.214Z,8.80
2018-12-19T00:03:11.391Z,8.80
2018-12-19T00:05:39.576Z,8.80
2018-12-19T00:08:07.950Z,8.80
2018-12-19T00:10:36.128Z,8.80
2018-12-19T00:13:04.406Z,8.80
2018-12-19T00:15:32.772Z,8.80
2018-12-19T00:18:00.951Z,8.80
2018-12-19T00:20:29.222Z,8.80
2018-12-19T00:22:57.404Z,8.80
2018-12-19T00:25:25.586Z,8.80
2018-12-19T00:27:53.844Z,8.90
2018-12-19T00:30:22.100Z,8.90
2018-12-19T00:32:50.803Z,8.90
2018-12-19T00:35:18.963Z,8.90
2018-12-19T00:37:47.141Z,8.90
2018-12-19T00:40:15.473Z,8.90
2018-12-19T00:42:43.681Z,8.90
2018-12-19T00:45:11.843Z,8.90
2018-12-19T00:47:40.050Z,8.90
2018-12-19T00:50:08.389Z,8.90
2018-12-19T00:52:36.567Z,8.90
2018-12-19T00:55:04.971Z,8.90
2018-12-19T00:57:33.459Z,8.90
2018-12-19T01:00:01.612Z,8.90
2018-12-19T01:02:29.815Z,9.00
2018-12-19T01:04:58.100Z,9.00
2018-12-19T01:07:26.355Z,9.00
2018-12-19T01:09:54.643Z,9.00
2018-12-19T01:12:22.848Z,9.00
2018-12-19T01:14:51.056Z,8.90
2018-12-19T01:17:19.357Z,8.90
2018-12-19T01:19:47.534Z,9.00
2018-12-19T01:22:15.771Z,9.00
2018-12-19T01:24:43.992Z,9.00
2018-12-19T01:27:12.257Z,9.00
2018-12-19T01:29:40.494Z,9.00
2018-12-19T01:32:08.710Z,9.00
2018-12-19T01:34:37.094Z,9.10
2018-12-19T01:37:05.248Z,9.10
2018-12-19T01:39:33.460Z,9.10
2018-12-19T01:42:01.675Z,9.10
2018-12-19T01:44:30.040Z,9.10
2018-12-19T01:46:58.220Z,9.10
2018-12-19T01:49:26.392Z,9.20
2018-12-19T01:51:54.586Z,9.20
2018-12-19T01:54:22.782Z,9.20
2018-12-19T01:56:50.974Z,9.20
2018-12-19T01:59:19.143Z,9.20
2018-12-19T02:01:47.464Z,9.20
2018-12-19T02:04:15.630Z,9.20
2018-12-19T02:06:44.001Z,9.20
2018-12-19T02:09:12.243Z,9.20
2018-12-19T02:11:40.444Z,9.20
2018-12-19T02:14:09.351Z,9.20
2018-12-19T02:16:37.542Z,9.20
2018-12-19T02:19:05.734Z,9.20
2018-12-19T02:21:33.949Z,9.20
2018-12-19T02:24:02.131Z,9.20
2018-12-19T02:26:30.684Z,9.20
2018-12-19T02:28:58.855Z,9.20
2018-12-19T02:31:27.128Z,9.30
2018-12-19T02:33:55.571Z,9.30
2018-12-19T02:36:23.734Z,9.20
2018-12-19T02:38:51.913Z,9.20
2018-12-19T02:41:20.118Z,9.20
2018-12-19T02:43:48.325Z,9.20
2018-12-19T02:46:16.590Z,9.20
2018-12-19T02:48:44.765Z,9.20
2018-12-19T02:51:13.022Z,9.20
2018-12-19T02:53:41.524Z,9.20
2018-12-19T02:56:09.696Z,9.20
2018-12-19T02:58:37.882Z,9.20
2018-12-19T03:01:06.077Z,9.20
2018-12-19T03:03:34.288Z,9.20
2018-12-19T03:06:02.460Z,9.20
2018-12-19T03:08:30.828Z,9.20
2018-12-19T03:10:59.252Z,9.20
2018-12-19T03:13:28.040Z,9.20
2018-12-19T03:15:56.303Z,9.20
2018-12-19T03:18:24.460Z,9.20
2018-12-19T03:20:52.660Z,9.20
2018-12-19T03:23:20.914Z,9.20
2018-12-19T03:25:49.097Z,9.20
2018-12-19T03:28:17.363Z,9.20
2018-12-19T03:30:45.538Z,9.20
2018-12-19T03:33:13.825Z,9.20
2018-12-19T03:40:34.389Z,9.20
2018-12-19T03:43:02.605Z,9.00
2018-12-19T03:45:30.805Z,9.00
2018-12-19T03:47:58.982Z,9.00
2018-12-19T03:50:27.175Z,9.00
2018-12-19T03:52:55.400Z,9.00
2018-12-19T03:55:23.581Z,9.00
2018-12-19T03:57:51.908Z,9.00
2018-12-19T04:00:20.247Z,9.00
2018-12-19T04:02:48.444Z,9.00
2018-12-19T04:05:16.834Z,9.00
2018-12-19T04:07:45.036Z,9.10
2018-12-19T04:10:13.261Z,9.10
2018-12-19T04:12:41.470Z,9.10
2018-12-19T04:15:09.686Z,9.10
2018-12-19T04:17:37.845Z,9.10
2018-12-19T04:20:06.157Z,9.10
2018-12-19T04:22:34.349Z,9.10
2018-12-19T04:25:02.852Z,9.20
2018-12-19T04:27:31.047Z,9.20
2018-12-19T04:29:59.276Z,9.20
2018-12-19T04:32:27.541Z,9.20
2018-12-19T04:34:55.721Z,9.20
2018-12-19T04:37:23.989Z,9.20
2018-12-19T04:39:52.187Z,9.20
2018-12-19T04:42:20.403Z,9.20
2018-12-19T04:44:48.603Z,9.20
2018-12-19T04:47:16.847Z,9.20
2018-12-19T04:49:45.039Z,9.20
2018-12-19T04:52:13.232Z,9.20
2018-12-19T04:54:41.502Z,9.20
2018-12-19T04:57:09.677Z,9.20
2018-12-19T04:59:37.891Z,9.30
2018-12-19T05:02:06.103Z,9.30
2018-12-19T05:04:34.309Z,9.30
2018-12-19T05:07:02.498Z,9.30
2018-12-19T05:09:30.865Z,9.40
2018-12-19T05:11:59.344Z,9.40
2018-12-19T05:14:27.798Z,9.40
2018-12-19T05:16:56.078Z,9.40
2018-12-19T05:19:24.334Z,9.40
2018-12-19T05:21:52.565Z,9.40
2018-12-19T05:24:21.010Z,9.50
2018-12-19T05:26:49.181Z,9.50
2018-12-19T05:29:17.367Z,9.50
2018-12-19T05:31:45.647Z,9.50
2018-12-19T05:34:13.872Z,9.50
2018-12-19T05:36:42.047Z,9.50
2018-12-19T05:39:10.249Z,9.50
2018-12-19T05:41:38.542Z,9.50
2018-12-19T05:44:06.725Z,9.50
2018-12-19T05:46:34.940Z,9.50
2018-12-19T05:49:03.116Z,9.50
2018-12-19T05:51:31.309Z,9.50
2018-12-19T05:53:59.512Z,9.50
2018-12-19T05:56:27.748Z,9.50
2018-12-19T05:58:55.960Z,9.50
2018-12-19T06:01:24.152Z,9.50
2018-12-19T06:03:52.372Z,9.50
2018-12-19T06:06:20.692Z,9.50
2018-12-19T06:08:48.880Z,9.50
2018-12-19T06:11:17.159Z,9.60
2018-12-19T06:13:45.419Z,9.60
2018-12-19T06:16:13.599Z,9.60
2018-12-19T06:18:41.765Z,9.60
2018-12-19T06:21:09.945Z,9.60
2018-12-19T06:23:38.163Z,9.60
2018-12-19T06:26:06.351Z,9.60
2018-12-19T06:28:34.525Z,9.60
2018-12-19T06:31:02.723Z,9.60
2018-12-19T06:33:31.199Z,9.60
2018-12-19T06:35:59.637Z,9.70
2018-12-19T06:38:27.877Z,9.70
2018-12-19T06:40:56.144Z,9.70
2018-12-19T06:43:24.332Z,9.70
2018-12-19T06:45:52.596Z,9.70
2018-12-19T06:48:20.861Z,9.70
2018-12-19T06:50:49.049Z,9.80
2018-12-19T06:53:17.269Z,9.80
2018-12-19T06:55:45.493Z,9.80
2018-12-19T06:58:13.680Z,9.80
2018-12-19T07:00:41.861Z,9.80
2018-12-19T07:03:10.049Z,9.80
2018-12-19T07:05:38.359Z,9.90
2018-12-19T07:08:06.655Z,9.90
2018-12-19T07:10:39.113Z,10.00
2018-12-19T07:13:05.161Z,9.90
2018-12-19T07:15:33.448Z,9.90
2018-12-19T07:18:01.633Z,10.00
2018-12-19T07:20:29.843Z,10.00
2018-12-19T07:22:58.047Z,10.00
2018-12-19T07:25:26.233Z,10.00
2018-12-19T07:27:54.409Z,10.00
2018-12-19T07:30:22.629Z,10.00
2018-12-19T07:32:50.870Z,9.90
2018-12-19T07:35:19.054Z,10.00
2018-12-19T07:37:47.217Z,9.90
2018-12-19T07:40:15.485Z,9.90
2018-12-19T07:42:43.659Z,9.90
2018-12-19T07:45:11.889Z,10.00
2018-12-19T07:47:40.125Z,10.00
2018-12-19T07:50:08.328Z,10.00
2018-12-19T07:52:36.521Z,10.00
2018-12-19T07:55:04.863Z,10.00
2018-12-19T07:57:33.204Z,10.00
2018-12-19T08:00:01.466Z,10.10
2018-12-19T08:02:29.647Z,10.10
2018-12-19T08:04:57.853Z,10.10
2018-12-19T08:07:26.076Z,10.10
2018-12-19T08:09:54.280Z,10.10
2018-12-19T08:12:22.433Z,10.10
2018-12-19T08:14:52.708Z,10.10
2018-12-19T08:17:20.966Z,10.10
2018-12-19T08:19:49.128Z,10.10
2018-12-19T08:22:17.316Z,10.10
2018-12-19T08:24:45.514Z,10.10
2018-12-19T08:27:13.744Z,10.10
2018-12-19T08:29:41.920Z,10.10
2018-12-19T08:32:10.106Z,10.10
2018-12-19T08:34:38.384Z,10.10
2018-12-19T08:37:06.556Z,10.10
2018-12-19T08:39:35.049Z,10.10
2018-12-19T08:42:03.325Z,10.10
2018-12-19T08:44:32.344Z,10.10
2018-12-19T08:47:00.551Z,10.20
2018-12-19T08:49:28.703Z,10.20
2018-12-19T08:51:56.879Z,10.20
2018-12-19T08:54:25.088Z,10.30
2018-12-19T08:56:53.425Z,10.30
2018-12-19T08:59:21.607Z,10.30
2018-12-19T09:01:49.818Z,10.30
2018-12-19T09:04:18.001Z,10.30
2018-12-19T09:06:46.214Z,10.40
2018-12-19T09:09:14.436Z,10.40
2018-12-19T09:11:42.739Z,10.50
2018-12-19T09:14:10.998Z,10.50
2018-12-19T09:16:39.282Z,10.60
2018-12-19T09:19:07.454Z,10.60
2018-12-19T09:21:35.644Z,10.60
2018-12-19T09:24:03.885Z,10.60
2018-12-19T09:26:32.163Z,10.70
2018-12-19T09:29:00.436Z,10.70
2018-12-19T09:31:28.724Z,10.70
2018-12-19T09:33:56.993Z,10.80
2018-12-19T09:36:26.184Z,10.80
2018-12-19T09:38:54.366Z,10.80
2018-12-19T09:41:22.531Z,10.80
2018-12-19T09:43:50.824Z,10.80
2018-12-19T09:46:19.010Z,10.80
2018-12-19T09:48:47.291Z,10.80
2018-12-19T09:51:15.583Z,10.90
2018-12-19T09:53:43.774Z,10.90
2018-12-19T09:56:11.972Z,10.90
2018-12-19T09:58:40.365Z,11.00
2018-12-19T10:01:08.741Z,11.00
2018-12-19T10:03:37.011Z,11.10
2018-12-19T10:06:05.367Z,11.20
2018-12-19T10:08:33.976Z,11.20
2018-12-19T10:11:02.247Z,11.30
2018-12-19T10:13:30.527Z,11.30
2018-12-19T10:15:58.775Z,11.30
2018-12-19T10:18:27.890Z,11.30
2018-12-19T10:20:56.052Z,11.20
2018-12-19T10:23:24.288Z,11.20
2018-12-19T10:25:58.287Z,11.20
2018-12-19T10:28:32.282Z,11.30
2018-12-19T10:31:00.553Z,11.30
2018-12-19T10:33:28.719Z,11.30
2018-12-19T10:35:57.037Z,11.30
2018-12-19T10:38:25.245Z,11.30
2018-12-19T10:40:53.969Z,11.30
2018-12-19T10:43:22.145Z,11.40
2018-12-19T10:45:50.331Z,11.40
2018-12-19T10:48:18.541Z,11.40
2018-12-19T10:50:46.871Z,11.40
2018-12-19T10:53:15.043Z,11.40
2018-12-19T10:55:43.421Z,11.40
2018-12-19T10:58:11.733Z,11.40
2018-12-19T11:00:45.742Z,11.50
2018-12-19T11:03:13.945Z,11.50
2018-12-19T11:05:42.256Z,11.50
2018-12-19T11:08:10.461Z,11.50
2018-12-19T11:10:38.642Z,11.50
2018-12-19T11:13:06.864Z,11.60
2018-12-19T11:15:35.363Z,11.60
2018-12-19T11:18:03.576Z,11.60
2018-12-19T11:20:31.964Z,11.60
2018-12-19T11:23:00.150Z,11.50
2018-12-19T11:25:28.472Z,11.60
2018-12-19T11:27:56.680Z,11.60
2018-12-19T11:30:24.852Z,11.50
2018-12-19T11:32:53.032Z,11.50
2018-12-19T11:35:21.252Z,11.50
2018-12-19T11:37:49.455Z,11.50
2018-12-19T11:40:17.652Z,11.60
2018-12-19T11:42:45.854Z,11.60
2018-12-19T11:45:14.020Z,11.60
2018-12-19T11:47:42.191Z,11.70
2018-12-19T11:50:10.415Z,11.70
2018-12-19T11:52:38.771Z,11.70
2018-12-19T11:55:06.962Z,11.60
2018-12-19T11:57:35.206Z,11.60
2018-12-19T12:00:05.274Z,11.60
2018-12-19T12:02:33.614Z,11.60
2018-12-19T12:05:01.789Z,11.60
2018-12-19T12:07:30.389Z,11.60
2018-12-19T12:09:58.672Z,11.60
2018-12-19T12:12:26.931Z,11.60
2018-12-19T12:14:55.204Z,11.60
2018-12-19T12:17:23.476Z,11.60
2018-12-19T12:19:51.659Z,11.60
2018-12-19T12:22:19.944Z,11.60
2018-12-19T12:24:48.212Z,11.70
2018-12-19T12:27:16.476Z,11.70
2018-12-19T12:29:44.675Z,11.70
2018-12-19T12:32:12.928Z,11.70
2018-12-19T12:34:41.098Z,11.80
2018-12-19T12:37:09.485Z,11.80
2018-12-19T12:39:37.728Z,11.80
2018-12-19T12:42:05.943Z,11.80
2018-12-19T12:44:34.392Z,11.80
2018-12-19T12:47:02.641Z,11.80
2018-12-19T12:49:30.896Z,11.80
2018-12-19T12:51:59.091Z,11.80
2018-12-19T12:54:27.316Z,11.80
2018-12-19T12:56:55.484Z,11.80
2018-12-19T12:59:23.715Z,11.80
2018-12-19T13:01:51.904Z,11.80
2018-12-19T13:04:20.092Z,11.90
2018-12-19T13:06:48.261Z,11.90
2018-12-19T13:09:16.660Z,11.90
2018-12-19T13:11:44.838Z,11.90
2018-12-19T13:14:13.064Z,11.90
2018-12-19T13:16:41.328Z,11.90
2018-12-19T13:19:09.500Z,12.00
2018-12-19T13:21:37.702Z,12.00
2018-12-19T13:24:05.884Z,12.00
2018-12-19T13:26:34.064Z,12.00
2018-12-19T13:29:02.285Z,12.10
2018-12-19T13:31:31.770Z,12.10
2018-12-19T13:33:59.936Z,12.10
2018-12-19T13:36:28.130Z,12.10
2018-12-19T13:38:56.398Z,12.10
2018-12-19T13:41:24.596Z,12.10
2018-12-19T13:43:52.792Z,12.10
2018-12-19T13:46:21.043Z,12.10
2018-12-19T13:48:49.436Z,12.10
2018-12-19T13:51:17.643Z,12.10
2018-12-19T13:53:45.859Z,12.00
2018-12-19T13:56:14.214Z,12.00
2018-12-19T13:58:42.759Z,12.00
2018-12-19T14:01:10.984Z,12.00
2018-12-19T14:03:39.206Z,12.00
2018-12-19T14:06:07.394Z,12.00
2018-12-19T14:08:35.670Z,11.90
2018-12-19T14:11:03.985Z,11.90
2018-12-19T14:13:32.173Z,12.00
2018-12-19T14:16:00.343Z,12.00
2018-12-19T14:18:28.809Z,12.00
2018-12-19T14:20:56.984Z,12.00
2018-12-19T14:23:25.163Z,12.00
2018-12-19T14:25:53.628Z,12.00
2018-12-19T14:28:22.006Z,12.00
2018-12-19T14:30:50.216Z,12.00
2018-12-19T14:33:18.412Z,12.00
2018-12-19T14:35:46.591Z,12.00
2018-12-19T14:38:14.780Z,12.00
2018-12-19T14:40:42.984Z,11.90
2018-12-19T14:43:11.160Z,11.90
2018-12-19T14:45:39.336Z,11.90
2018-12-19T14:48:07.528Z,11.90
2018-12-19T14:50:35.875Z,11.90
2018-12-19T14:53:04.082Z,11.80
2018-12-19T14:55:32.429Z,11.80
2018-12-19T14:58:00.723Z,11.70
2018-12-19T15:00:28.949Z,11.60
2018-12-19T15:02:57.139Z,11.60
2018-12-19T15:05:25.381Z,11.40
2018-12-19T15:07:53.795Z,11.40
2018-12-19T15:10:22.680Z,11.30
2018-12-19T15:12:50.878Z,11.20
2018-12-19T15:15:19.140Z,11.20
2018-12-19T15:17:47.421Z,11.20
2018-12-19T15:20:15.663Z,11.10
2018-12-19T15:22:43.855Z,11.00
2018-12-19T15:25:12.057Z,11.00
2018-12-19T15:27:41.133Z,10.90
2018-12-19T15:30:09.323Z,10.80
2018-12-19T15:32:38.097Z,10.80
2018-12-19T15:35:06.387Z,10.80
2018-12-19T15:37:34.589Z,10.70
2018-12-19T15:40:02.764Z,10.60
2018-12-19T15:42:32.578Z,10.60
2018-12-19T15:45:01.027Z,10.60
2018-12-19T15:47:29.299Z,10.50
2018-12-19T15:49:57.511Z,10.50
2018-12-19T15:52:25.701Z,10.40
2018-12-19T15:54:54.001Z,10.40
2018-12-19T15:57:22.317Z,10.30
2018-12-19T15:59:50.549Z,10.30
2018-12-19T16:02:19.109Z,10.20
2018-12-19T16:04:47.291Z,10.20
2018-12-19T16:07:15.506Z,10.10
2018-12-19T16:09:43.701Z,10.10
2018-12-19T16:12:11.945Z,10.00
2018-12-19T16:14:40.143Z,10.00
2018-12-19T16:17:08.619Z,10.00
2018-12-19T16:19:36.825Z,9.90
2018-12-19T16:22:05.063Z,9.90
2018-12-19T16:24:33.245Z,9.80
2018-12-19T16:27:01.508Z,9.80
2018-12-19T16:29:29.724Z,9.80
2018-12-19T16:31:57.951Z,9.70
2018-12-19T16:34:26.188Z,9.70
2018-12-19T16:36:54.370Z,9.70
2018-12-19T16:39:22.617Z,9.60
2018-12-19T16:41:50.818Z,9.60
2018-12-19T16:44:18.996Z,9.60
2018-12-19T16:46:47.161Z,9.50
2018-12-19T16:49:15.493Z,9.50
2018-12-19T16:51:43.766Z,9.50
2018-12-19T16:54:12.048Z,9.50
2018-12-19T16:56:40.312Z,9.50
2018-12-19T16:59:09.402Z,9.50
2018-12-19T17:01:37.614Z,9.50
2018-12-19T17:04:05.769Z,9.50
2018-12-19T17:06:33.960Z,9.50
2018-12-19T17:09:02.256Z,9.50
2018-12-19T17:11:30.566Z,9.50
2018-12-19T17:13:58.764Z,9.40
2018-12-19T17:16:26.944Z,9.40
2018-12-19T17:18:55.175Z,9.40
2018-12-19T17:21:23.354Z,9.30
2018-12-19T17:23:51.547Z,9.30
2018-12-19T17:26:19.727Z,9.30
2018-12-19T17:28:47.893Z,9.30
2018-12-19T17:31:16.181Z,9.20
2018-12-19T17:33:44.393Z,9.20
2018-12-19T17:36:12.622Z,9.20
2018-12-19T17:38:40.905Z,9.10
2018-12-19T17:41:09.096Z,9.10
2018-12-19T17:43:37.331Z,9.10
2018-12-19T17:46:05.549Z,9.00
2018-12-19T17:48:33.765Z,9.00
2018-12-19T17:51:01.969Z,9.00
2018-12-19T17:53:30.293Z,9.00
2018-12-19T17:55:58.531Z,8.90
2018-12-19T17:58:26.713Z,8.90
2018-12-19T18:00:55.049Z,8.90
2018-12-19T18:03:23.262Z,8.90
2018-12-19T18:05:51.423Z,8.90
2018-12-19T18:08:19.701Z,8.80
2018-12-19T18:10:47.985Z,8.80
2018-12-19T18:13:16.255Z,8.80
2018-12-19T18:15:44.547Z,8.80
2018-12-19T18:18:12.805Z,8.70
2018-12-19T18:20:41.133Z,8.70
2018-12-19T18:23:09.327Z,8.70
2018-12-19T18:25:38.560Z,8.70
2018-12-19T18:28:06.767Z,8.60
2018-12-19T18:30:34.995Z,8.60
2018-12-19T18:33:03.209Z,8.60
2018-12-19T18:35:31.406Z,8.60
2018-12-19T18:37:59.621Z,8.50
2018-12-19T18:40:27.899Z,8.50
2018-12-19T18:42:56.199Z,8.50
2018-12-19T18:45:24.375Z,8.50
2018-12-19T18:47:52.642Z,8.50
2018-12-19T18:50:20.912Z,8.40
2018-12-19T18:52:49.294Z,8.40
2018-12-19T18:55:17.472Z,8.40
2018-12-19T18:57:45.655Z,8.40
2018-12-19T19:00:15.976Z,8.40
2018-12-19T19:02:44.214Z,8.40
2018-12-19T19:05:12.528Z,8.40
2018-12-19T19:07:40.778Z,8.40
2018-12-19T19:10:09.192Z,8.30
2018-12-19T19:12:37.375Z,8.30
2018-12-19T19:15:05.976Z,8.30
2018-12-19T19:17:34.276Z,8.30
2018-12-19T19:20:02.583Z,8.30
2018-12-19T19:22:30.966Z,8.30
2018-12-19T19:24:59.231Z,8.30
2018-12-19T19:27:27.512Z,8.30
2018-12-19T19:29:55.690Z,8.30
2018-12-19T19:32:23.879Z,8.20
2018-12-19T19:34:52.148Z,8.20
2018-12-19T19:37:20.312Z,8.20
2018-12-19T19:39:48.583Z,8.20
2018-12-19T19:42:18.676Z,8.20
2018-12-19T19:44:46.877Z,8.20
2018-12-19T19:47:15.045Z,8.20
2018-12-19T19:49:43.432Z,8.20
2018-12-19T19:52:11.748Z,8.10
2018-12-19T19:54:39.930Z,8.10
2018-12-19T19:57:08.173Z,8.10
2018-12-19T19:59:36.345Z,8.10
2018-12-19T20:02:04.630Z,8.10
2018-12-19T20:04:32.858Z,8.10
2018-12-19T20:07:01.225Z,8.10
2018-12-19T20:09:29.445Z,8.20
2018-12-19T20:11:57.663Z,8.10
2018-12-19T20:14:25.877Z,8.10
2018-12-19T20:16:59.719Z,8.10
2018-12-19T20:19:28.295Z,8.20
2018-12-19T20:21:56.497Z,8.20
2018-12-19T20:24:24.693Z,8.20
2018-12-19T20:26:52.877Z,8.20
2018-12-19T20:29:21.057Z,8.20
2018-12-19T20:31:49.241Z,8.30
2018-12-19T20:34:17.507Z,8.30
2018-12-19T20:36:45.673Z,8.30
2018-12-19T20:39:13.968Z,8.30
2018-12-19T20:41:42.169Z,8.40
2018-12-19T20:44:10.377Z,8.40
2018-12-19T20:46:38.586Z,8.40
2018-12-19T20:49:06.768Z,8.40
2018-12-19T20:51:34.952Z,8.40
2018-12-19T20:54:03.190Z,8.40
2018-12-19T20:56:31.395Z,8.40
2018-12-19T20:58:59.652Z,8.40
2018-12-19T21:01:27.901Z,8.50
2018-12-19T21:03:56.104Z,8.50
2018-12-19T21:06:24.288Z,8.50
2018-12-19T21:08:52.448Z,8.60
2018-12-19T21:11:21.131Z,8.60
2018-12-19T21:13:49.308Z,8.60
2018-12-19T21:16:17.602Z,8.60
2018-12-19T21:18:48.540Z,8.70
2018-12-19T21:21:16.730Z,8.70
2018-12-19T21:23:45.008Z,8.70
2018-12-19T21:26:13.213Z,8.70
2018-12-19T21:28:43.471Z,8.70
2018-12-19T21:31:11.749Z,8.70
2018-12-19T21:33:40.038Z,8.80
2018-12-19T21:36:08.220Z,8.80
2018-12-19T21:38:36.455Z,8.80
2018-12-19T21:41:04.628Z,8.90
2018-12-19T21:43:33.097Z,8.90
2018-12-19T21:46:01.307Z,8.90
2018-12-19T21:48:29.605Z,8.90
2018-12-19T21:50:57.926Z,8.90
2018-12-19T21:53:26.128Z,9.00
2018-12-19T21:55:54.403Z,9.00
2018-12-19T21:58:24.494Z,9.00
2018-12-19T22:00:52.692Z,9.00
2018-12-19T22:03:20.957Z,9.00
2018-12-19T22:05:49.170Z,9.10
2018-12-19T22:08:17.384Z,9.10
2018-12-19T22:10:45.719Z,9.10
2018-12-19T22:13:14.012Z,9.10
2018-12-19T22:15:42.305Z,9.10
2018-12-19T22:18:16.379Z,9.10
2018-12-19T22:20:44.840Z,9.10
2018-12-19T22:23:13.104Z,9.20
2018-12-19T22:25:41.410Z,9.20
2018-12-19T22:28:09.672Z,9.20
2018-12-19T22:30:37.950Z,9.20
2018-12-19T22:33:06.167Z,9.30
2018-12-19T22:35:34.525Z,9.30
2018-12-19T22:38:02.810Z,9.30
2018-12-19T22:40:31.069Z,9.30
2018-12-19T22:42:59.329Z,9.30
2018-12-19T22:45:27.534Z,9.30
2018-12-19T22:47:55.822Z,9.30
2018-12-19T22:50:24.015Z,9.40
2018-12-19T22:52:52.274Z,9.40
2018-12-19T22:55:20.576Z,9.40
2018-12-19T22:57:48.778Z,9.40
2018-12-19T23:00:17.160Z,9.40
2018-12-19T23:02:51.264Z,9.40
2018-12-19T23:05:21.698Z,9.40
2018-12-19T23:07:49.986Z,9.40
2018-12-19T23:10:18.251Z,9.40
2018-12-19T23:12:46.509Z,9.40
2018-12-19T23:15:14.787Z,9.50
2018-12-19T23:17:43.077Z,9.50
2018-12-19T23:20:11.303Z,9.50
2018-12-19T23:22:39.588Z,9.50
2018-12-19T23:25:07.961Z,9.60
2018-12-19T23:27:36.247Z,9.60
2018-12-19T23:30:06.107Z,9.60
2018-12-19T23:32:34.342Z,9.60
2018-12-19T23:35:02.590Z,9.60
2018-12-19T23:37:30.909Z,9.60
2018-12-19T23:39:59.214Z,9.60
2018-12-19T23:42:27.425Z,9.60
2018-12-19T23:44:55.633Z,9.60
2018-12-19T23:47:24.010Z,9.60
2018-12-19T23:49:52.364Z,9.70
2018-12-19T23:52:20.850Z,9.70
2018-12-19T23:54:49.302Z,9.70
2018-12-19T23:57:17.625Z,9.70
2018-12-19T23:59:45.817Z,9.70
